sensor_id;sensor_type;location;lat;lon;timestamp;P1;durP1;ratioP1;P2;durP2;ratioP2
16193;SDS011;8204;53.582;10.080;2023-12-20T00:01:00;16.50;;;4.17;;
16193;SDS011;8204;53.582;10.080;2023-12-20T00:03:25;12.37;;;4.30;;
16193;SDS011;8204;53.582;10.080;2023-12-20T00:05:51;10.03;;;2.90;;
16193;SDS011;8204;53.582;10.080;2023-12-20T00:08:17;7.50;;;4.23;;
16193;SDS011;8204;53.582;10.080;2023-12-20T00:10:44;12.03;;;5.03;;
16193;SDS011;8204;53.582;10.080;2023-12-20T00:13:10;8.27;;;3.33;;
16193;SDS011;8204;53.582;10.080;2023-12-20T00:15:36;9.43;;;3.80;;
16193;SDS011;8204;53.582;10.080;2023-12-20T00:18:02;12.37;;;4.07;;
16193;SDS011;8204;53.582;10.080;2023-12-20T00:20:29;12.67;;;4.07;;
16193;SDS011;8204;53.582;10.080;2023-12-20T00:22:56;11.13;;;3.63;;
16193;SDS011;8204;53.582;10.080;2023-12-20T00:25:22;5.23;;;2.77;;
16193;SDS011;8204;53.582;10.080;2023-12-20T00:27:48;8.60;;;3.97;;
16193;SDS011;8204;53.582;10.080;2023-12-20T00:30:14;4.73;;;2.57;;
16193;SDS011;8204;53.582;10.080;2023-12-20T00:32:40;9.33;;;3.53;;
16193;SDS011;8204;53.582;10.080;2023-12-20T00:35:12;15.03;;;4.03;;
16193;SDS011;8204;53.582;10.080;2023-12-20T00:37:42;6.87;;;2.83;;
16193;SDS011;8204;53.582;10.080;2023-12-20T00:40:08;17.07;;;4.13;;
16193;SDS011;8204;53.582;10.080;2023-12-20T00:42:34;15.67;;;3.67;;
16193;SDS011;8204;53.582;10.080;2023-12-20T00:45:01;5.53;;;2.20;;
16193;SDS011;8204;53.582;10.080;2023-12-20T00:47:28;10.17;;;3.97;;
16193;SDS011;8204;53.582;10.080;2023-12-20T00:49:54;7.90;;;3.00;;
16193;SDS011;8204;53.582;10.080;2023-12-20T00:52:19;10.53;;;3.73;;
16193;SDS011;8204;53.582;10.080;2023-12-20T00:54:48;5.90;;;3.43;;
16193;SDS011;8204;53.582;10.080;2023-12-20T00:57:14;14.30;;;4.93;;
16193;SDS011;8204;53.582;10.080;2023-12-20T00:59:40;9.63;;;3.80;;
16193;SDS011;8204;53.582;10.080;2023-12-20T01:02:06;14.87;;;4.10;;
16193;SDS011;8204;53.582;10.080;2023-12-20T01:04:32;10.97;;;4.27;;
16193;SDS011;8204;53.582;10.080;2023-12-20T01:06:57;13.50;;;3.80;;
16193;SDS011;8204;53.582;10.080;2023-12-20T01:09:25;9.53;;;4.50;;
16193;SDS011;8204;53.582;10.080;2023-12-20T01:11:54;15.90;;;4.93;;
16193;SDS011;8204;53.582;10.080;2023-12-20T01:14:19;15.93;;;4.90;;
16193;SDS011;8204;53.582;10.080;2023-12-20T01:16:45;28.27;;;4.27;;
16193;SDS011;8204;53.582;10.080;2023-12-20T01:19:10;7.30;;;3.57;;
16193;SDS011;8204;53.582;10.080;2023-12-20T01:21:39;13.20;;;4.60;;
16193;SDS011;8204;53.582;10.080;2023-12-20T01:24:05;11.73;;;4.27;;
16193;SDS011;8204;53.582;10.080;2023-12-20T01:26:32;14.30;;;5.07;;
16193;SDS011;8204;53.582;10.080;2023-12-20T01:28:58;7.23;;;3.07;;
16193;SDS011;8204;53.582;10.080;2023-12-20T01:31:25;9.20;;;4.27;;
16193;SDS011;8204;53.582;10.080;2023-12-20T01:33:53;9.77;;;3.23;;
16193;SDS011;8204;53.582;10.080;2023-12-20T01:36:19;12.70;;;4.90;;
16193;SDS011;8204;53.582;10.080;2023-12-20T01:38:45;10.57;;;4.03;;
16193;SDS011;8204;53.582;10.080;2023-12-20T01:41:10;11.03;;;4.03;;
16193;SDS011;8204;53.582;10.080;2023-12-20T01:43:37;15.63;;;4.20;;
16193;SDS011;8204;53.582;10.080;2023-12-20T01:46:04;7.97;;;3.87;;
16193;SDS011;8204;53.582;10.080;2023-12-20T01:48:30;5.47;;;3.37;;
16193;SDS011;8204;53.582;10.080;2023-12-20T01:50:59;6.83;;;4.27;;
16193;SDS011;8204;53.582;10.080;2023-12-20T01:53:26;13.67;;;4.43;;
16193;SDS011;8204;53.582;10.080;2023-12-20T01:55:54;13.43;;;4.30;;
16193;SDS011;8204;53.582;10.080;2023-12-20T01:58:20;14.60;;;3.73;;
16193;SDS011;8204;53.582;10.080;2023-12-20T02:00:46;10.93;;;4.53;;
16193;SDS011;8204;53.582;10.080;2023-12-20T02:03:14;9.93;;;4.10;;
16193;SDS011;8204;53.582;10.080;2023-12-20T02:05:40;12.07;;;3.80;;
16193;SDS011;8204;53.582;10.080;2023-12-20T02:08:07;15.57;;;4.57;;
16193;SDS011;8204;53.582;10.080;2023-12-20T02:10:33;13.00;;;3.83;;
16193;SDS011;8204;53.582;10.080;2023-12-20T02:12:59;8.77;;;4.20;;
16193;SDS011;8204;53.582;10.080;2023-12-20T02:15:26;6.50;;;3.33;;
16193;SDS011;8204;53.582;10.080;2023-12-20T02:17:52;12.03;;;3.33;;
16193;SDS011;8204;53.582;10.080;2023-12-20T02:20:19;17.73;;;4.17;;
16193;SDS011;8204;53.582;10.080;2023-12-20T02:22:45;13.80;;;5.37;;
16193;SDS011;8204;53.582;10.080;2023-12-20T02:25:11;12.43;;;3.70;;
16193;SDS011;8204;53.582;10.080;2023-12-20T02:27:37;9.40;;;3.70;;
16193;SDS011;8204;53.582;10.080;2023-12-20T02:30:04;14.93;;;4.27;;
16193;SDS011;8204;53.582;10.080;2023-12-20T02:32:31;13.77;;;3.80;;
16193;SDS011;8204;53.582;10.080;2023-12-20T02:34:57;8.67;;;4.07;;
16193;SDS011;8204;53.582;10.080;2023-12-20T02:37:23;11.67;;;3.70;;
16193;SDS011;8204;53.582;10.080;2023-12-20T02:39:49;14.33;;;4.93;;
16193;SDS011;8204;53.582;10.080;2023-12-20T02:42:15;8.07;;;3.77;;
16193;SDS011;8204;53.582;10.080;2023-12-20T02:44:41;10.73;;;3.83;;
16193;SDS011;8204;53.582;10.080;2023-12-20T02:47:08;5.57;;;3.67;;
16193;SDS011;8204;53.582;10.080;2023-12-20T02:49:34;9.57;;;3.43;;
16193;SDS011;8204;53.582;10.080;2023-12-20T02:52:00;16.03;;;3.60;;
16193;SDS011;8204;53.582;10.080;2023-12-20T02:54:26;9.20;;;3.47;;
16193;SDS011;8204;53.582;10.080;2023-12-20T02:56:52;14.90;;;4.33;;
16193;SDS011;8204;53.582;10.080;2023-12-20T02:59:18;8.57;;;3.27;;
16193;SDS011;8204;53.582;10.080;2023-12-20T03:01:45;9.33;;;3.47;;
16193;SDS011;8204;53.582;10.080;2023-12-20T03:04:11;13.27;;;4.87;;
16193;SDS011;8204;53.582;10.080;2023-12-20T03:06:38;13.10;;;3.87;;
16193;SDS011;8204;53.582;10.080;2023-12-20T03:09:04;8.67;;;3.17;;
16193;SDS011;8204;53.582;10.080;2023-12-20T03:11:30;7.63;;;3.70;;
16193;SDS011;8204;53.582;10.080;2023-12-20T03:13:56;13.63;;;4.40;;
16193;SDS011;8204;53.582;10.080;2023-12-20T03:16:23;12.57;;;4.03;;
16193;SDS011;8204;53.582;10.080;2023-12-20T03:18:49;20.33;;;3.80;;
16193;SDS011;8204;53.582;10.080;2023-12-20T03:21:16;12.70;;;3.80;;
16193;SDS011;8204;53.582;10.080;2023-12-20T03:23:42;10.97;;;4.00;;
16193;SDS011;8204;53.582;10.080;2023-12-20T03:26:08;9.97;;;4.03;;
16193;SDS011;8204;53.582;10.080;2023-12-20T03:28:35;11.07;;;3.27;;
16193;SDS011;8204;53.582;10.080;2023-12-20T03:31:02;8.53;;;3.37;;
16193;SDS011;8204;53.582;10.080;2023-12-20T03:33:28;13.57;;;4.27;;
16193;SDS011;8204;53.582;10.080;2023-12-20T03:35:55;5.13;;;2.77;;
16193;SDS011;8204;53.582;10.080;2023-12-20T03:38:20;11.73;;;4.13;;
16193;SDS011;8204;53.582;10.080;2023-12-20T03:40:46;7.33;;;3.47;;
16193;SDS011;8204;53.582;10.080;2023-12-20T03:43:12;8.30;;;3.03;;
16193;SDS011;8204;53.582;10.080;2023-12-20T03:45:38;9.23;;;3.43;;
16193;SDS011;8204;53.582;10.080;2023-12-20T03:48:05;7.27;;;3.67;;
16193;SDS011;8204;53.582;10.080;2023-12-20T03:50:31;12.90;;;4.60;;
16193;SDS011;8204;53.582;10.080;2023-12-20T03:52:57;9.47;;;3.97;;
16193;SDS011;8204;53.582;10.080;2023-12-20T03:55:23;7.27;;;2.77;;
16193;SDS011;8204;53.582;10.080;2023-12-20T03:57:49;16.90;;;4.23;;
16193;SDS011;8204;53.582;10.080;2023-12-20T04:00:15;15.73;;;4.10;;
16193;SDS011;8204;53.582;10.080;2023-12-20T04:02:42;6.97;;;3.70;;
16193;SDS011;8204;53.582;10.080;2023-12-20T04:05:08;8.13;;;4.00;;
16193;SDS011;8204;53.582;10.080;2023-12-20T04:07:35;7.27;;;3.20;;
16193;SDS011;8204;53.582;10.080;2023-12-20T04:10:02;11.03;;;3.93;;
16193;SDS011;8204;53.582;10.080;2023-12-20T04:12:29;11.00;;;4.60;;
16193;SDS011;8204;53.582;10.080;2023-12-20T04:14:56;9.43;;;4.00;;
16193;SDS011;8204;53.582;10.080;2023-12-20T04:17:22;9.10;;;3.37;;
16193;SDS011;8204;53.582;10.080;2023-12-20T04:19:49;11.57;;;3.20;;
16193;SDS011;8204;53.582;10.080;2023-12-20T04:22:16;14.00;;;4.43;;
16193;SDS011;8204;53.582;10.080;2023-12-20T04:24:43;11.67;;;3.37;;
16193;SDS011;8204;53.582;10.080;2023-12-20T04:27:09;8.97;;;3.33;;
16193;SDS011;8204;53.582;10.080;2023-12-20T04:29:35;9.70;;;3.60;;
16193;SDS011;8204;53.582;10.080;2023-12-20T04:32:02;9.27;;;5.10;;
16193;SDS011;8204;53.582;10.080;2023-12-20T04:34:29;9.63;;;3.90;;
16193;SDS011;8204;53.582;10.080;2023-12-20T04:36:54;6.67;;;2.83;;
16193;SDS011;8204;53.582;10.080;2023-12-20T04:39:20;13.20;;;3.30;;
16193;SDS011;8204;53.582;10.080;2023-12-20T04:41:47;14.10;;;4.43;;
16193;SDS011;8204;53.582;10.080;2023-12-20T04:44:13;12.33;;;4.00;;
16193;SDS011;8204;53.582;10.080;2023-12-20T04:46:40;5.60;;;4.30;;
16193;SDS011;8204;53.582;10.080;2023-12-20T04:49:07;9.23;;;3.60;;
16193;SDS011;8204;53.582;10.080;2023-12-20T04:51:33;4.53;;;2.80;;
16193;SDS011;8204;53.582;10.080;2023-12-20T04:54:00;6.60;;;3.53;;
16193;SDS011;8204;53.582;10.080;2023-12-20T04:56:26;9.27;;;3.50;;
16193;SDS011;8204;53.582;10.080;2023-12-20T04:58:52;12.03;;;4.70;;
16193;SDS011;8204;53.582;10.080;2023-12-20T05:01:18;12.93;;;4.10;;
16193;SDS011;8204;53.582;10.080;2023-12-20T05:03:44;11.33;;;3.77;;
16193;SDS011;8204;53.582;10.080;2023-12-20T05:06:10;12.27;;;5.83;;
16193;SDS011;8204;53.582;10.080;2023-12-20T05:08:36;15.63;;;5.10;;
16193;SDS011;8204;53.582;10.080;2023-12-20T05:11:02;10.77;;;4.20;;
16193;SDS011;8204;53.582;10.080;2023-12-20T05:13:29;13.07;;;4.07;;
16193;SDS011;8204;53.582;10.080;2023-12-20T05:15:54;9.80;;;4.43;;
16193;SDS011;8204;53.582;10.080;2023-12-20T05:18:21;11.63;;;4.03;;
16193;SDS011;8204;53.582;10.080;2023-12-20T05:20:48;9.90;;;3.80;;
16193;SDS011;8204;53.582;10.080;2023-12-20T05:23:14;14.77;;;4.20;;
16193;SDS011;8204;53.582;10.080;2023-12-20T05:25:40;12.07;;;4.90;;
16193;SDS011;8204;53.582;10.080;2023-12-20T05:28:07;10.87;;;3.83;;
16193;SDS011;8204;53.582;10.080;2023-12-20T05:30:32;13.80;;;5.00;;
16193;SDS011;8204;53.582;10.080;2023-12-20T05:32:59;13.07;;;4.37;;
16193;SDS011;8204;53.582;10.080;2023-12-20T05:35:25;10.10;;;4.70;;
16193;SDS011;8204;53.582;10.080;2023-12-20T05:37:51;13.53;;;5.13;;
16193;SDS011;8204;53.582;10.080;2023-12-20T05:40:17;11.40;;;4.37;;
16193;SDS011;8204;53.582;10.080;2023-12-20T05:42:44;14.63;;;4.97;;
16193;SDS011;8204;53.582;10.080;2023-12-20T05:45:09;14.37;;;4.50;;
16193;SDS011;8204;53.582;10.080;2023-12-20T05:47:35;12.67;;;4.47;;
16193;SDS011;8204;53.582;10.080;2023-12-20T05:50:01;15.73;;;5.40;;
16193;SDS011;8204;53.582;10.080;2023-12-20T05:52:28;11.63;;;4.97;;
16193;SDS011;8204;53.582;10.080;2023-12-20T05:54:53;12.60;;;4.63;;
16193;SDS011;8204;53.582;10.080;2023-12-20T05:57:20;14.97;;;4.90;;
16193;SDS011;8204;53.582;10.080;2023-12-20T05:59:45;19.30;;;4.73;;
16193;SDS011;8204;53.582;10.080;2023-12-20T06:02:11;14.83;;;3.90;;
16193;SDS011;8204;53.582;10.080;2023-12-20T06:04:41;11.63;;;5.73;;
16193;SDS011;8204;53.582;10.080;2023-12-20T06:07:07;15.10;;;5.13;;
16193;SDS011;8204;53.582;10.080;2023-12-20T06:09:33;12.80;;;3.80;;
16193;SDS011;8204;53.582;10.080;2023-12-20T06:11:59;13.07;;;5.47;;
16193;SDS011;8204;53.582;10.080;2023-12-20T06:14:26;11.80;;;4.30;;
16193;SDS011;8204;53.582;10.080;2023-12-20T06:16:52;16.83;;;4.83;;
16193;SDS011;8204;53.582;10.080;2023-12-20T06:19:17;9.83;;;4.33;;
16193;SDS011;8204;53.582;10.080;2023-12-20T06:21:43;13.83;;;4.60;;
16193;SDS011;8204;53.582;10.080;2023-12-20T06:24:10;10.03;;;4.67;;
16193;SDS011;8204;53.582;10.080;2023-12-20T06:26:36;15.10;;;5.60;;
16193;SDS011;8204;53.582;10.080;2023-12-20T06:29:01;13.57;;;4.40;;
16193;SDS011;8204;53.582;10.080;2023-12-20T06:31:27;11.70;;;5.00;;
16193;SDS011;8204;53.582;10.080;2023-12-20T06:33:53;9.60;;;4.13;;
16193;SDS011;8204;53.582;10.080;2023-12-20T06:36:23;14.30;;;5.03;;
16193;SDS011;8204;53.582;10.080;2023-12-20T06:38:50;17.30;;;5.00;;
16193;SDS011;8204;53.582;10.080;2023-12-20T06:41:16;10.77;;;4.00;;
16193;SDS011;8204;53.582;10.080;2023-12-20T06:43:43;11.90;;;4.23;;
16193;SDS011;8204;53.582;10.080;2023-12-20T06:46:09;9.43;;;4.70;;
16193;SDS011;8204;53.582;10.080;2023-12-20T06:48:35;13.03;;;4.97;;
16193;SDS011;8204;53.582;10.080;2023-12-20T06:51:01;7.60;;;4.27;;
16193;SDS011;8204;53.582;10.080;2023-12-20T06:53:30;16.77;;;5.20;;
16193;SDS011;8204;53.582;10.080;2023-12-20T06:55:56;10.97;;;4.77;;
16193;SDS011;8204;53.582;10.080;2023-12-20T06:58:22;11.50;;;4.97;;
16193;SDS011;8204;53.582;10.080;2023-12-20T07:00:48;17.53;;;4.77;;
16193;SDS011;8204;53.582;10.080;2023-12-20T07:03:14;15.33;;;5.07;;
16193;SDS011;8204;53.582;10.080;2023-12-20T07:05:40;7.13;;;3.63;;
16193;SDS011;8204;53.582;10.080;2023-12-20T07:08:06;8.73;;;4.17;;
16193;SDS011;8204;53.582;10.080;2023-12-20T07:10:33;13.43;;;6.13;;
16193;SDS011;8204;53.582;10.080;2023-12-20T07:12:59;10.50;;;3.70;;
16193;SDS011;8204;53.582;10.080;2023-12-20T07:15:25;12.90;;;4.40;;
16193;SDS011;8204;53.582;10.080;2023-12-20T07:17:51;11.17;;;4.53;;
16193;SDS011;8204;53.582;10.080;2023-12-20T07:20:16;9.60;;;5.13;;
16193;SDS011;8204;53.582;10.080;2023-12-20T07:22:43;11.97;;;4.73;;
16193;SDS011;8204;53.582;10.080;2023-12-20T07:25:09;18.40;;;6.13;;
16193;SDS011;8204;53.582;10.080;2023-12-20T07:27:35;11.47;;;4.63;;
16193;SDS011;8204;53.582;10.080;2023-12-20T07:30:01;12.07;;;4.20;;
16193;SDS011;8204;53.582;10.080;2023-12-20T07:32:28;17.47;;;5.90;;
16193;SDS011;8204;53.582;10.080;2023-12-20T07:34:55;11.60;;;5.33;;
16193;SDS011;8204;53.582;10.080;2023-12-20T07:37:21;15.10;;;4.47;;
16193;SDS011;8204;53.582;10.080;2023-12-20T07:39:47;13.17;;;4.93;;
16193;SDS011;8204;53.582;10.080;2023-12-20T07:42:13;19.07;;;5.63;;
16193;SDS011;8204;53.582;10.080;2023-12-20T07:44:39;16.67;;;4.77;;
16193;SDS011;8204;53.582;10.080;2023-12-20T07:47:04;16.50;;;4.97;;
16193;SDS011;8204;53.582;10.080;2023-12-20T07:49:31;16.90;;;6.53;;
16193;SDS011;8204;53.582;10.080;2023-12-20T07:51:57;19.13;;;6.00;;
16193;SDS011;8204;53.582;10.080;2023-12-20T07:54:22;14.90;;;6.50;;
16193;SDS011;8204;53.582;10.080;2023-12-20T07:56:48;14.07;;;5.60;;
16193;SDS011;8204;53.582;10.080;2023-12-20T07:59:14;11.37;;;4.57;;
16193;SDS011;8204;53.582;10.080;2023-12-20T08:01:39;12.50;;;5.40;;
16193;SDS011;8204;53.582;10.080;2023-12-20T08:04:04;18.10;;;6.00;;
16193;SDS011;8204;53.582;10.080;2023-12-20T08:06:30;25.47;;;7.00;;
16193;SDS011;8204;53.582;10.080;2023-12-20T08:08:56;11.90;;;5.17;;
16193;SDS011;8204;53.582;10.080;2023-12-20T08:11:22;16.40;;;5.93;;
16193;SDS011;8204;53.582;10.080;2023-12-20T08:13:47;14.17;;;5.47;;
16193;SDS011;8204;53.582;10.080;2023-12-20T08:16:13;17.57;;;5.50;;
16193;SDS011;8204;53.582;10.080;2023-12-20T08:18:40;10.33;;;5.23;;
16193;SDS011;8204;53.582;10.080;2023-12-20T08:21:06;14.67;;;6.20;;
16193;SDS011;8204;53.582;10.080;2023-12-20T08:23:33;11.53;;;5.27;;
16193;SDS011;8204;53.582;10.080;2023-12-20T08:26:03;16.23;;;6.47;;
16193;SDS011;8204;53.582;10.080;2023-12-20T08:28:32;14.80;;;4.67;;
16193;SDS011;8204;53.582;10.080;2023-12-20T08:30:58;16.10;;;5.40;;
16193;SDS011;8204;53.582;10.080;2023-12-20T08:33:24;14.07;;;5.53;;
16193;SDS011;8204;53.582;10.080;2023-12-20T08:35:49;16.33;;;5.50;;
16193;SDS011;8204;53.582;10.080;2023-12-20T08:38:16;10.57;;;4.70;;
16193;SDS011;8204;53.582;10.080;2023-12-20T08:40:43;10.50;;;4.60;;
16193;SDS011;8204;53.582;10.080;2023-12-20T08:43:09;12.33;;;5.33;;
16193;SDS011;8204;53.582;10.080;2023-12-20T08:45:35;13.57;;;4.83;;
16193;SDS011;8204;53.582;10.080;2023-12-20T08:48:00;16.83;;;5.53;;
16193;SDS011;8204;53.582;10.080;2023-12-20T08:50:26;12.70;;;6.03;;
16193;SDS011;8204;53.582;10.080;2023-12-20T08:52:52;14.20;;;6.07;;
16193;SDS011;8204;53.582;10.080;2023-12-20T08:55:18;12.07;;;4.97;;
16193;SDS011;8204;53.582;10.080;2023-12-20T08:57:45;18.93;;;6.37;;
16193;SDS011;8204;53.582;10.080;2023-12-20T09:00:10;17.47;;;5.57;;
16193;SDS011;8204;53.582;10.080;2023-12-20T09:02:36;22.20;;;5.23;;
16193;SDS011;8204;53.582;10.080;2023-12-20T09:05:02;20.40;;;5.90;;
16193;SDS011;8204;53.582;10.080;2023-12-20T09:07:28;10.33;;;5.13;;
16193;SDS011;8204;53.582;10.080;2023-12-20T09:09:56;15.73;;;5.70;;
16193;SDS011;8204;53.582;10.080;2023-12-20T09:12:22;9.43;;;4.83;;
16193;SDS011;8204;53.582;10.080;2023-12-20T09:14:48;7.57;;;3.77;;
16193;SDS011;8204;53.582;10.080;2023-12-20T09:17:16;6.53;;;3.90;;
16193;SDS011;8204;53.582;10.080;2023-12-20T09:19:42;12.60;;;4.60;;
16193;SDS011;8204;53.582;10.080;2023-12-20T09:22:09;24.00;;;5.27;;
16193;SDS011;8204;53.582;10.080;2023-12-20T09:24:35;12.57;;;4.83;;
16193;SDS011;8204;53.582;10.080;2023-12-20T09:27:00;7.20;;;3.60;;
16193;SDS011;8204;53.582;10.080;2023-12-20T09:29:26;16.77;;;4.13;;
16193;SDS011;8204;53.582;10.080;2023-12-20T09:31:51;8.53;;;3.97;;
16193;SDS011;8204;53.582;10.080;2023-12-20T09:34:17;8.57;;;3.47;;
16193;SDS011;8204;53.582;10.080;2023-12-20T09:36:43;8.00;;;2.53;;
16193;SDS011;8204;53.582;10.080;2023-12-20T09:39:15;11.90;;;3.37;;
16193;SDS011;8204;53.582;10.080;2023-12-20T09:42:01;3.70;;;2.27;;
16193;SDS011;8204;53.582;10.080;2023-12-20T09:44:29;3.57;;;2.37;;
16193;SDS011;8204;53.582;10.080;2023-12-20T09:47:00;7.60;;;3.50;;
16193;SDS011;8204;53.582;10.080;2023-12-20T09:49:28;2.83;;;1.87;;
16193;SDS011;8204;53.582;10.080;2023-12-20T09:51:54;5.37;;;2.37;;
16193;SDS011;8204;53.582;10.080;2023-12-20T09:54:21;5.67;;;2.50;;
16193;SDS011;8204;53.582;10.080;2023-12-20T09:56:47;3.00;;;1.60;;
16193;SDS011;8204;53.582;10.080;2023-12-20T09:59:13;3.07;;;1.63;;
16193;SDS011;8204;53.582;10.080;2023-12-20T10:01:42;4.97;;;1.47;;
16193;SDS011;8204;53.582;10.080;2023-12-20T10:04:09;3.27;;;1.60;;
16193;SDS011;8204;53.582;10.080;2023-12-20T10:06:43;2.03;;;1.83;;
16193;SDS011;8204;53.582;10.080;2023-12-20T10:09:10;2.70;;;1.57;;
16193;SDS011;8204;53.582;10.080;2023-12-20T10:11:40;2.77;;;1.13;;
16193;SDS011;8204;53.582;10.080;2023-12-20T10:14:06;3.43;;;1.47;;
16193;SDS011;8204;53.582;10.080;2023-12-20T10:16:32;2.97;;;1.60;;
16193;SDS011;8204;53.582;10.080;2023-12-20T10:18:59;3.53;;;2.20;;
16193;SDS011;8204;53.582;10.080;2023-12-20T10:21:27;3.63;;;1.40;;
16193;SDS011;8204;53.582;10.080;2023-12-20T10:23:56;8.10;;;2.20;;
16193;SDS011;8204;53.582;10.080;2023-12-20T10:26:23;3.70;;;1.80;;
16193;SDS011;8204;53.582;10.080;2023-12-20T10:28:54;5.67;;;1.47;;
16193;SDS011;8204;53.582;10.080;2023-12-20T10:31:34;3.30;;;1.00;;
16193;SDS011;8204;53.582;10.080;2023-12-20T10:34:01;2.30;;;1.27;;
16193;SDS011;8204;53.582;10.080;2023-12-20T10:36:31;4.00;;;1.50;;
16193;SDS011;8204;53.582;10.080;2023-12-20T10:38:58;7.23;;;2.50;;
16193;SDS011;8204;53.582;10.080;2023-12-20T10:41:28;2.37;;;1.47;;
16193;SDS011;8204;53.582;10.080;2023-12-20T10:43:56;3.93;;;1.70;;
16193;SDS011;8204;53.582;10.080;2023-12-20T10:46:24;14.47;;;7.37;;
16193;SDS011;8204;53.582;10.080;2023-12-20T10:48:54;87.57;;;65.37;;
16193;SDS011;8204;53.582;10.080;2023-12-20T10:51:21;86.77;;;72.13;;
16193;SDS011;8204;53.582;10.080;2023-12-20T10:53:48;20.17;;;18.07;;
16193;SDS011;8204;53.582;10.080;2023-12-20T10:56:16;7.70;;;3.80;;
16193;SDS011;8204;53.582;10.080;2023-12-20T10:58:49;6.53;;;2.07;;
16193;SDS011;8204;53.582;10.080;2023-12-20T11:01:19;4.17;;;1.83;;
16193;SDS011;8204;53.582;10.080;2023-12-20T11:03:52;4.60;;;2.07;;
16193;SDS011;8204;53.582;10.080;2023-12-20T11:11:34;12.30;;;3.93;;
16193;SDS011;8204;53.582;10.080;2023-12-20T11:14:05;13.60;;;3.20;;
16193;SDS011;8204;53.582;10.080;2023-12-20T11:16:36;4.37;;;2.17;;
16193;SDS011;8204;53.582;10.080;2023-12-20T11:19:05;8.20;;;2.60;;
16193;SDS011;8204;53.582;10.080;2023-12-20T11:21:31;7.20;;;2.77;;
16193;SDS011;8204;53.582;10.080;2023-12-20T11:23:57;7.17;;;3.30;;
16193;SDS011;8204;53.582;10.080;2023-12-20T11:26:22;6.60;;;2.60;;
16193;SDS011;8204;53.582;10.080;2023-12-20T11:28:54;5.37;;;2.60;;
16193;SDS011;8204;53.582;10.080;2023-12-20T11:31:56;8.13;;;2.77;;
16193;SDS011;8204;53.582;10.080;2023-12-20T11:34:22;5.17;;;2.60;;
16193;SDS011;8204;53.582;10.080;2023-12-20T11:36:58;7.63;;;2.47;;
16193;SDS011;8204;53.582;10.080;2023-12-20T11:39:25;3.10;;;2.30;;
16193;SDS011;8204;53.582;10.080;2023-12-20T11:41:53;4.93;;;1.70;;
16193;SDS011;8204;53.582;10.080;2023-12-20T11:44:19;3.83;;;2.07;;
16193;SDS011;8204;53.582;10.080;2023-12-20T11:46:46;4.13;;;1.80;;
16193;SDS011;8204;53.582;10.080;2023-12-20T11:49:11;3.03;;;2.23;;
16193;SDS011;8204;53.582;10.080;2023-12-20T11:51:40;6.00;;;2.43;;
16193;SDS011;8204;53.582;10.080;2023-12-20T11:54:06;5.50;;;2.10;;
16193;SDS011;8204;53.582;10.080;2023-12-20T11:56:31;6.77;;;3.20;;
16193;SDS011;8204;53.582;10.080;2023-12-20T11:58:58;4.17;;;2.60;;
16193;SDS011;8204;53.582;10.080;2023-12-20T12:01:23;11.43;;;3.43;;
16193;SDS011;8204;53.582;10.080;2023-12-20T12:04:03;6.40;;;3.27;;
16193;SDS011;8204;53.582;10.080;2023-12-20T12:06:30;10.17;;;4.00;;
16193;SDS011;8204;53.582;10.080;2023-12-20T12:08:55;9.20;;;3.40;;
16193;SDS011;8204;53.582;10.080;2023-12-20T12:11:22;9.07;;;3.57;;
16193;SDS011;8204;53.582;10.080;2023-12-20T12:13:48;15.57;;;4.53;;
16193;SDS011;8204;53.582;10.080;2023-12-20T12:16:17;10.30;;;3.60;;
16193;SDS011;8204;53.582;10.080;2023-12-20T12:18:44;8.73;;;3.40;;
16193;SDS011;8204;53.582;10.080;2023-12-20T12:21:10;21.17;;;4.70;;
16193;SDS011;8204;53.582;10.080;2023-12-20T12:23:43;12.90;;;3.30;;
16193;SDS011;8204;53.582;10.080;2023-12-20T12:26:08;9.83;;;3.17;;
16193;SDS011;8204;53.582;10.080;2023-12-20T12:28:34;9.83;;;3.80;;
16193;SDS011;8204;53.582;10.080;2023-12-20T12:31:00;7.93;;;3.60;;
16193;SDS011;8204;53.582;10.080;2023-12-20T12:33:26;13.33;;;4.53;;
16193;SDS011;8204;53.582;10.080;2023-12-20T12:35:52;11.30;;;4.83;;
16193;SDS011;8204;53.582;10.080;2023-12-20T12:38:22;17.70;;;5.57;;
16193;SDS011;8204;53.582;10.080;2023-12-20T12:40:50;12.47;;;4.77;;
16193;SDS011;8204;53.582;10.080;2023-12-20T12:43:15;9.27;;;4.87;;
16193;SDS011;8204;53.582;10.080;2023-12-20T12:45:41;14.63;;;6.30;;
16193;SDS011;8204;53.582;10.080;2023-12-20T12:48:07;12.80;;;4.37;;
16193;SDS011;8204;53.582;10.080;2023-12-20T12:50:32;20.87;;;5.93;;
16193;SDS011;8204;53.582;10.080;2023-12-20T12:52:58;10.63;;;4.10;;
16193;SDS011;8204;53.582;10.080;2023-12-20T12:55:23;14.67;;;4.37;;
16193;SDS011;8204;53.582;10.080;2023-12-20T12:57:49;12.63;;;4.67;;
16193;SDS011;8204;53.582;10.080;2023-12-20T13:00:16;12.10;;;5.37;;
16193;SDS011;8204;53.582;10.080;2023-12-20T13:02:41;20.10;;;6.53;;
16193;SDS011;8204;53.582;10.080;2023-12-20T13:05:07;16.03;;;4.43;;
16193;SDS011;8204;53.582;10.080;2023-12-20T13:07:33;21.27;;;6.23;;
16193;SDS011;8204;53.582;10.080;2023-12-20T13:09:59;17.27;;;5.97;;
16193;SDS011;8204;53.582;10.080;2023-12-20T13:12:25;14.93;;;5.17;;
16193;SDS011;8204;53.582;10.080;2023-12-20T13:14:51;16.93;;;5.17;;
16193;SDS011;8204;53.582;10.080;2023-12-20T13:17:17;17.53;;;4.60;;
16193;SDS011;8204;53.582;10.080;2023-12-20T13:19:42;13.17;;;4.80;;
16193;SDS011;8204;53.582;10.080;2023-12-20T13:22:08;18.37;;;5.77;;
16193;SDS011;8204;53.582;10.080;2023-12-20T13:24:33;15.47;;;4.97;;
16193;SDS011;8204;53.582;10.080;2023-12-20T13:27:01;19.60;;;6.43;;
16193;SDS011;8204;53.582;10.080;2023-12-20T13:29:27;20.63;;;5.00;;
16193;SDS011;8204;53.582;10.080;2023-12-20T13:31:52;15.33;;;4.77;;
16193;SDS011;8204;53.582;10.080;2023-12-20T13:34:18;14.90;;;6.23;;
16193;SDS011;8204;53.582;10.080;2023-12-20T13:36:44;19.13;;;5.67;;
16193;SDS011;8204;53.582;10.080;2023-12-20T13:39:12;15.77;;;6.33;;
16193;SDS011;8204;53.582;10.080;2023-12-20T13:41:38;15.77;;;5.40;;
16193;SDS011;8204;53.582;10.080;2023-12-20T13:44:04;15.83;;;4.97;;
16193;SDS011;8204;53.582;10.080;2023-12-20T13:46:30;14.30;;;6.70;;
16193;SDS011;8204;53.582;10.080;2023-12-20T13:48:57;17.50;;;6.17;;
16193;SDS011;8204;53.582;10.080;2023-12-20T13:51:22;11.97;;;6.00;;
16193;SDS011;8204;53.582;10.080;2023-12-20T13:53:48;13.90;;;5.40;;
16193;SDS011;8204;53.582;10.080;2023-12-20T13:56:15;23.77;;;7.43;;
16193;SDS011;8204;53.582;10.080;2023-12-20T13:58:43;19.77;;;7.00;;
16193;SDS011;8204;53.582;10.080;2023-12-20T14:01:09;14.33;;;5.97;;
16193;SDS011;8204;53.582;10.080;2023-12-20T14:03:36;15.77;;;5.77;;
16193;SDS011;8204;53.582;10.080;2023-12-20T14:06:02;12.53;;;5.87;;
16193;SDS011;8204;53.582;10.080;2023-12-20T14:08:28;16.83;;;7.27;;
16193;SDS011;8204;53.582;10.080;2023-12-20T14:10:54;21.10;;;7.23;;
16193;SDS011;8204;53.582;10.080;2023-12-20T14:13:19;20.97;;;8.73;;
16193;SDS011;8204;53.582;10.080;2023-12-20T14:15:46;16.07;;;7.60;;
16193;SDS011;8204;53.582;10.080;2023-12-20T14:18:12;19.17;;;8.07;;
16193;SDS011;8204;53.582;10.080;2023-12-20T14:20:39;16.30;;;7.07;;
16193;SDS011;8204;53.582;10.080;2023-12-20T14:23:08;26.60;;;6.80;;
16193;SDS011;8204;53.582;10.080;2023-12-20T14:25:34;13.73;;;7.77;;
16193;SDS011;8204;53.582;10.080;2023-12-20T14:28:03;20.00;;;7.80;;
16193;SDS011;8204;53.582;10.080;2023-12-20T14:30:30;18.43;;;7.10;;
16193;SDS011;8204;53.582;10.080;2023-12-20T14:32:55;21.50;;;8.03;;
16193;SDS011;8204;53.582;10.080;2023-12-20T14:35:21;17.47;;;8.07;;
16193;SDS011;8204;53.582;10.080;2023-12-20T14:37:47;18.40;;;7.53;;
16193;SDS011;8204;53.582;10.080;2023-12-20T14:40:12;17.10;;;6.97;;